Allock, Kentucky
Current Conditions -  °F | °C
As of 5:35 PM on Tuesday 21 Oct 2014 (Local Time) from KI35 Reporting Station
Overcast Overcast  
Wind Chill: 54°   Ceiling: 6000
Heat Index: 54°   Visibility: 10mi
Dew Point: 37°   Wind: 9mph
Humidity: 54%   Direction: 320°NW
Pressure: 30.05"   Gusts: NA
Location:  37.1842°N, 83.1053°W
Report Text: KI35 212135Z AUTO 32008KT 290V060 10SM SCT038 OVC060 12/03 A3005 RMK AO1
Loading
Personal Weather Stations






























Interactive Weather Map
Tropical Storm Tracking
New forecast layout! Learn more

10-Day Weather Forecast

Advertisements
Track Severe Weather on mobile